Burghill, Ohio
Current Conditions -  °F | °C
As of 7:51 PM on Saturday 22 Nov 2014 (Local Time) from KYNG Reporting Station
Overcast Overcast  
Wind Chill: 36°   Ceiling: 3800
Heat Index: 43°   Visibility: 10mi
Dew Point: 32°   Wind: 14mph
Humidity: 65%   Direction: 190°S
Pressure: 30.06"   Gusts: NA
Location:  41.33°N, 80.54°W
Report Text: KYNG 230051Z 19012KT 10SM BKN038 BKN050 OVC070 06/00 A3006 RMK AO2 RAB26E36 SLP190 VCSH P0000 T00610000
Loading
Personal Weather Stations






























Interactive Weather Map New forecast layout! Learn more

10-Day Weather Forecast

Advertisements
Track Severe Weather on mobile